Welcome to the New NWS' Forecast!
Most changes are behind the scenes, but click here for differences you might notice.
Latest weather observations around

CW5634 Ponderosa (C5634)

Using English Units (Switch to International System of Units)
Date/ Time (PDT) Wind (mph) Vis. (mi) Weather Sky Cond. Temp (°F) Rel. Humidity Wind Chill (°F) Heat Index (°F) Pressure Precip. (in)
Air Dwpt 6 hour Altimeter (inHg) Sea level (inHg) 1 hr 3 hr 6 hr
Max Min
Sep 24 09:30 NE 5   Clear   71 37     29%   69          
Sep 24 07:30 NE 4   Clear   65 39     38%              
Sep 24 07:11 Calm   Clear   61 37     41%              
Sep 24 05:30 NNE 1   Clear   61 38     43%              
Sep 24 04:00 NNE 4   Clear   64 38     38%              
Sep 24 03:30 NE 5   Clear   64 38     38%              
Sep 23 23:30 N 6   Clear   69 33     26%              
Sep 23 21:00 W 2   Clear   74 28     18%   72          
Sep 23 20:30 N 1   Clear   73 28     19%   71          
Sep 23 17:30 N 6   Clear   80 30     16%   78          
Sep 23 16:00 NE 3   Clear   80 31     17%   78          
Sep 23 15:30 N 4   Clear   81 32     17%   80          
Sep 23 15:00 N 4   Clear   81 32     17%   80          
Sep 23 14:30 NE 6   Clear   81 32     17%   80          
Sep 23 14:00 N 6   Clear   82 34     18%   80          
Sep 23 13:30 NNE 1   Clear   81 33     18%   80          
Sep 23 13:00 NNW 5   Clear   81 35     19%   80          
Sep 23 12:30 N 5   Clear   80 34     19%   79          
Sep 23 11:30 NNE 4   Clear   77 36     23%   75          
Sep 23 11:00 N 5   Clear   76 37     24%   74          
Sep 23 10:30 N 8   Clear   76 36     23%   74          
Sep 23 10:00 NNW 8   Clear   75 36     24%   73          
Sep 23 09:00 E 2   Clear   73 35     25%   71          
Sep 23 07:00 NNW 3   Clear   68 33     27%              
Sep 23 06:00 NNE 1   Clear   67 32     27%              
Sep 23 05:00 NNE 1   Clear   68 30     24%              
Sep 23 04:00 N 4   Clear   69 27     21%              
Sep 23 02:30 Calm   Clear   67 32     27%              
Sep 23 00:30 Calm   Clear   69 26     20%              
Sep 23 00:00 Calm   Clear   70 26     19%              
Sep 22 23:00 Calm   Clear   72 27     19%   70          
Sep 22 22:30 NW 2   Clear   72 27     19%   70          
Sep 22 20:30 Calm   Clear   74 26     17%   72          
Sep 22 19:30 Calm   Clear   77 27     16%   75          
Sep 22 18:30 Calm   Clear   79 27     15%   77          
Sep 22 16:30 ESE 3   Clear   83 29     14%   80          
Sep 22 16:00 Calm   Clear   84 28     13%   81          
Sep 22 14:30 NE 2   Clear   84 31     15%   81          
Sep 22 12:30 Calm   Clear   81 32     17%   80          
Sep 22 11:30 NNE 2   Clear   78 34     20%   76          
Sep 22 10:30 NNE 3   Clear   76 36     23%   74          
Sep 22 10:00 N 6   Clear   74 35     24%   72          
Sep 22 09:30 NNW 4   Clear   74 37     26%   72          
Sep 22 07:30 Calm   Clear   70 32     24%              
Sep 22 07:00 Calm   Clear   66 32     28%              
Sep 22 06:30 Calm   Clear   63 29     28%              
Sep 22 05:30 Calm   Clear   63 26     24%              
Sep 22 05:00 Calm   Clear   64 25     23%              
Sep 22 04:00 Calm   Clear   66 25     21%              
Sep 22 03:30 Calm   Clear   66 25     21%              
Sep 22 03:00 Calm   Clear   67 26     21%              
Sep 22 02:30 Calm   Clear   68 25     20%              
Sep 22 01:30 Calm   Clear   72 29     20%   70          
Sep 22 01:00 NNE 1   Clear   73 31     21%   71          
Sep 22 00:00 WNW 9   Clear   74 28     18%   72          
Sep 21 23:30 NW 2   Clear   74 35     24%   72          
Sep 21 21:30 WNW 8   Clear   78 43     29%   77          
Sep 21 20:30 SW 3   Clear   80 47     31%   79          
Sep 21 19:00 SW 2   Clear   84 47     28%   82          
Sep 21 18:30 ESE 9   Clear   84 47     28%   82          
Sep 21 17:00 SW 8   Clear   91 43     19%   87          
Sep 21 16:30 SSE 11   Clear   92 44     19%   88          
Sep 21 15:30 ESE 5   Clear   92 45     20%   88          
Sep 21 14:00 SSE 10   Clear   91 44     20%   87          
Sep 21 13:30 S 4   Clear   91 46     21%   87          
Sep 21 13:00 SE 6   Clear   90 46     22%   87          
Sep 21 12:30 SE 8   Clear   89 46     23%   86          
Sep 21 12:00 ESE 13   Clear   89 46     23%   86          
Sep 21 11:30 SSE 8   Clear   87 48     26%   84          
Sep 21 11:00 E 9   Clear   87 48     26%   84          
Sep 21 10:30 SSE 4   Clear   85 47     27%   83